Time;durP1;ratioP1;P1;durP2;ratioP2;P2;SDS_P1;SDS_P2;PMS_P1;PMS_P2;Temp;Humidity;BMP_temperature;BMP_pressure;BME280_temperature;BME280_humidity;BME280_pressure;Samples;Min_cycle;Max_cycle;Signal;HPM_P1;HPM_P2
2021/09/14 00:02:02;;;;;;;10.90;8.63;;;;;;;10.69;75.16;100119.56;254665;1100;116180;-65
2021/09/14 00:07:06;;;;;;;13.83;8.93;;;;;;;10.70;75.26;100118.52;254565;1107;116309;-64
2021/09/14 00:12:09;;;;;;;13.70;8.20;;;;;;;10.64;75.20;100109.56;254442;1107;115576;-64
2021/09/14 00:17:13;;;;;;;9.20;7.95;;;;;;;10.59;74.99;100111.28;254436;1106;116111;-64
2021/09/14 00:22:17;;;;;;;8.38;7.28;;;;;;;10.56;75.60;100111.72;254500;1107;115886;-65
2021/09/14 00:27:21;;;;;;;8.95;8.05;;;;;;;10.58;75.50;100105.13;254279;1107;118055;-65
2021/09/14 00:32:25;;;;;;;13.98;9.20;;;;;;;10.58;75.68;100110.47;255078;1107;115965;-65
2021/09/14 00:37:27;;;;;;;10.20;8.83;;;;;;;10.58;75.90;100109.65;254533;1107;116412;-64
2021/09/14 00:42:32;;;;;;;16.28;10.05;;;;;;;10.63;76.14;100113.27;256277;1106;117048;-65
2021/09/14 00:47:36;;;;;;;8.63;7.63;;;;;;;10.73;76.19;100118.85;256398;1107;116273;-65
2021/09/14 00:52:39;;;;;;;15.15;8.78;;;;;;;10.74;75.99;100117.00;256211;1106;116035;-65
2021/09/14 00:57:41;;;;;;;11.88;8.50;;;;;;;10.74;76.02;100122.33;254947;1107;115633;-64
2021/09/14 01:02:44;;;;;;;10.88;8.53;;;;;;;10.84;76.56;100119.95;254208;1107;118795;-64
2021/09/14 01:07:49;;;;;;;11.63;7.67;;;;;;;10.89;76.25;100116.61;254361;1107;116274;-65
2021/09/14 01:12:53;;;;;;;8.63;7.78;;;;;;;10.75;75.73;100126.63;253912;1107;117038;-64
2021/09/14 01:17:57;;;;;;;10.63;7.80;;;;;;;10.75;76.49;100124.78;254862;1107;116512;-63
2021/09/14 01:23:01;;;;;;;10.45;7.95;;;;;;;10.69;76.21;100124.89;254515;1106;116337;-64
2021/09/14 01:28:06;;;;;;;9.70;8.08;;;;;;;10.66;75.85;100122.67;253918;1106;115957;-65
2021/09/14 01:33:10;;;;;;;11.25;7.95;;;;;;;10.64;76.55;100125.56;253924;1107;115661;-65
2021/09/14 01:38:13;;;;;;;9.63;8.53;;;;;;;10.60;76.42;100129.72;254440;1107;118050;-64
2021/09/14 01:43:18;;;;;;;13.23;8.00;;;;;;;10.54;76.40;100127.13;254371;1107;116287;-64
2021/09/14 01:48:23;;;;;;;14.58;8.53;;;;;;;10.48;76.37;100125.35;254176;1107;115496;-64
2021/09/14 01:53:27;;;;;;;9.75;8.00;;;;;;;10.41;76.91;100126.24;253999;1107;116395;-64
2021/09/14 01:58:31;;;;;;;10.35;8.90;;;;;;;10.49;77.09;100125.13;254163;1107;116003;-64
2021/09/14 02:03:39;;;;;;;7.88;6.80;;;;;;;10.44;76.87;100131.13;254416;1107;137197;-65
2021/09/14 02:09:07;;;;;;;8.53;7.73;;;;;;;10.38;76.69;100118.72;254637;1107;115860;-64
2021/09/14 03:02:20;;;;;;;12.68;8.95;;;;;;;11.13;77.93;100112.95;253652;1107;117008;-63
2021/09/14 03:07:24;;;;;;;9.75;8.60;;;;;;;11.14;78.14;100110.05;255599;1107;117775;-63
2021/09/14 03:12:27;;;;;;;10.73;9.65;;;;;;;11.30;78.38;100113.92;253899;1107;116814;-64
2021/09/14 03:17:31;;;;;;;12.65;9.05;;;;;;;11.34;78.28;100111.58;255048;1100;117207;-64
2021/09/14 03:22:34;;;;;;;17.53;9.07;;;;;;;11.37;78.28;100111.13;254815;1107;116281;-64
2021/09/14 03:27:37;;;;;;;11.73;9.30;;;;;;;11.45;78.58;100105.45;254176;1107;116383;-65
2021/09/14 03:32:40;;;;;;;10.33;9.33;;;;;;;11.52;78.69;100111.50;254865;1107;115815;-64
2021/09/14 03:37:43;;;;;;;11.10;9.83;;;;;;;11.62;78.87;100105.56;254501;1107;115729;-64
2021/09/14 03:42:47;;;;;;;12.60;9.10;;;;;;;11.72;79.14;100108.47;254921;1100;116371;-64
2021/09/14 03:47:51;;;;;;;12.27;8.80;;;;;;;11.79;79.12;100111.88;255347;1107;115869;-64
2021/09/14 03:52:54;;;;;;;10.48;9.48;;;;;;;11.87;78.97;100110.71;254710;1107;116185;-65
2021/09/14 03:57:58;;;;;;;11.15;8.80;;;;;;;11.95;78.73;100119.16;254038;1107;116585;-64
2021/09/14 04:13:12;;;;;;;12.98;10.55;;;;;;;12.17;79.10;100123.91;253860;1107;116998;-65
2021/09/14 04:18:16;;;;;;;14.58;9.48;;;;;;;12.14;78.74;100127.86;255020;1107;115956;-64
2021/09/14 04:23:24;;;;;;;9.63;8.68;;;;;;;12.16;78.82;100131.11;254574;1107;118108;-64
2021/09/14 04:28:27;;;;;;;9.78;8.25;;;;;;;12.23;79.18;100139.80;254103;1107;115624;-65
2021/09/14 04:33:31;;;;;;;13.55;8.38;;;;;;;12.34;79.00;100132.80;255567;1106;115680;-65
2021/09/14 04:38:36;;;;;;;20.80;9.07;;;;;;;12.43;79.24;100150.11;256045;1107;115410;-64
2021/09/14 04:43:39;;;;;;;10.30;8.88;;;;;;;12.44;78.91;100149.88;255545;1107;116638;-64
2021/09/14 04:48:42;;;;;;;8.93;8.13;;;;;;;12.44;79.00;100143.72;256132;1107;115169;-65
2021/09/14 04:53:45;;;;;;;11.65;9.20;;;;;;;12.48;78.94;100143.02;256245;1107;115141;-64
2021/09/14 04:58:49;;;;;;;8.65;7.75;;;;;;;12.64;79.00;100151.31;255143;1107;115815;-64
2021/09/14 05:03:54;;;;;;;9.67;8.77;;;;;;;12.77;79.55;100151.05;255383;1107;116454;-63
2021/09/14 05:08:57;;;;;;;14.50;7.88;;;;;;;12.93;79.21;100155.62;254232;1100;115920;-67
2021/09/14 05:14:01;;;;;;;10.78;8.80;;;;;;;13.02;79.14;100153.38;254821;1107;115821;-63
2021/09/14 05:19:08;;;;;;;10.03;8.90;;;;;;;13.09;79.52;100154.86;255333;1107;115458;-63
2021/09/14 05:24:12;;;;;;;8.40;7.60;;;;;;;13.19;79.56;100154.23;255172;1107;115945;-64
2021/09/14 05:29:15;;;;;;;11.70;9.43;;;;;;;13.22;79.47;100155.62;253964;1101;116367;-64
2021/09/14 05:34:20;;;;;;;8.68;7.88;;;;;;;13.31;79.36;100154.98;254004;1106;115678;-64
2021/09/14 05:39:23;;;;;;;11.70;9.13;;;;;;;13.47;79.74;100158.72;254271;1107;115820;-65
2021/09/14 05:44:26;;;;;;;13.85;9.28;;;;;;;13.65;79.93;100150.45;253500;1100;115958;-68
2021/09/14 05:49:28;;;;;;;9.10;7.75;;;;;;;13.74;79.75;100154.34;254112;1102;116752;-64
2021/09/14 05:54:31;;;;;;;10.38;9.30;;;;;;;13.87;79.52;100136.28;254298;1100;115453;-63
2021/09/14 05:59:35;;;;;;;14.20;10.15;;;;;;;14.02;79.85;100152.59;253989;1107;115825;-64
2021/09/14 06:04:38;;;;;;;22.63;12.35;;;;;;;14.15;79.44;100155.72;253817;1103;116007;-64
2021/09/14 06:09:42;;;;;;;9.60;8.60;;;;;;;14.27;79.58;100160.98;255176;1107;116000;-65
2021/09/14 06:14:46;;;;;;;9.58;8.80;;;;;;;14.42;79.72;100157.69;253905;1106;116796;-64
2021/09/14 06:19:49;;;;;;;12.05;10.33;;;;;;;14.54;79.11;100162.94;255047;1107;115638;-65
2021/09/14 06:24:53;;;;;;;10.70;9.60;;;;;;;14.57;78.45;100173.17;255102;1107;116334;-65
2021/09/14 06:29:57;;;;;;;16.83;11.60;;;;;;;14.69;78.89;100176.52;255080;1106;116225;-66
2021/09/14 06:35:00;;;;;;;16.40;10.23;;;;;;;14.87;79.19;100176.20;254937;1107;116636;-65
2021/09/14 06:40:04;;;;;;;17.85;12.00;;;;;;;15.02;78.77;100181.72;255068;1107;116105;-65
2021/09/14 06:45:07;;;;;;;10.45;9.33;;;;;;;15.19;78.59;100187.01;254753;1107;116330;-67
2021/09/14 06:50:10;;;;;;;15.48;10.50;;;;;;;15.33;78.51;100179.33;254585;1107;116070;-65
2021/09/14 06:55:13;;;;;;;12.18;10.45;;;;;;;15.44;78.33;100181.05;256308;1106;115757;-64
2021/09/14 07:00:16;;;;;;;12.75;11.50;;;;;;;15.60;78.48;100184.69;255052;1107;117604;-66
2021/09/14 07:05:19;;;;;;;14.73;10.68;;;;;;;15.73;78.18;100185.08;254509;1107;115935;-67
2021/09/14 07:10:26;;;;;;;15.77;13.53;;;;;;;15.82;78.14;100178.16;253659;1107;116672;-67
2021/09/14 07:15:28;;;;;;;19.10;14.58;;;;;;;15.93;78.25;100188.97;253920;1107;116003;-65
2021/09/14 07:20:31;;;;;;;13.80;11.63;;;;;;;16.03;78.09;100186.36;254438;1107;116111;-67
2021/09/14 07:25:39;;;;;;;16.43;12.68;;;;;;;16.19;77.79;100198.03;253760;1107;116688;-68
2021/09/14 07:30:43;;;;;;;14.60;10.85;;;;;;;16.30;77.80;100203.19;254331;1107;115888;-67
2021/09/14 07:35:47;;;;;;;11.75;10.03;;;;;;;16.43;77.51;100200.04;253837;1107;116367;-66
2021/09/14 07:40:50;;;;;;;17.73;10.40;;;;;;;16.54;77.59;100205.45;253947;1107;116082;-66
2021/09/14 07:45:53;;;;;;;13.20;10.30;;;;;;;16.60;77.49;100207.91;253768;1100;115259;-65
2021/09/14 07:50:56;;;;;;;11.63;10.43;;;;;;;16.68;77.18;100201.25;253789;1100;115569;-65
2021/09/14 07:55:59;;;;;;;11.03;9.78;;;;;;;16.76;77.03;100209.64;253984;1107;115835;-66
2021/09/14 08:01:02;;;;;;;10.30;9.15;;;;;;;16.89;76.88;100207.50;254177;1107;115625;-66
2021/09/14 08:06:06;;;;;;;11.03;8.33;;;;;;;17.03;76.85;100214.02;253824;1107;117721;-67
2021/09/14 08:11:09;;;;;;;16.28;9.78;;;;;;;17.15;76.62;100222.66;253815;1107;115629;-67
2021/09/14 08:16:14;;;;;;;9.87;8.87;;;;;;;17.29;76.39;100220.27;253938;1107;115942;-65
2021/09/14 08:21:17;;;;;;;9.35;7.65;;;;;;;17.49;76.47;100215.70;253751;1100;116208;-68
2021/09/14 08:26:20;;;;;;;7.87;6.97;;;;;;;17.54;75.70;100214.91;254065;1107;115084;-67
2021/09/14 08:31:24;;;;;;;7.90;7.08;;;;;;;17.75;75.75;100221.94;253670;1100;118229;-66
2021/09/14 08:36:28;;;;;;;8.75;7.55;;;;;;;18.03;75.98;100215.20;253674;1107;115615;-66
2021/09/14 08:41:31;;;;;;;6.73;6.23;;;;;;;18.17;74.83;100218.94;254088;1100;115684;-66
2021/09/14 08:46:35;;;;;;;8.53;7.83;;;;;;;18.44;75.08;100221.29;255091;1107;115881;-65
2021/09/14 08:51:39;;;;;;;9.93;6.83;;;;;;;18.85;74.80;100215.77;253721;1106;116276;-67
2021/09/14 08:56:42;;;;;;;6.50;5.90;;;;;;;19.23;73.70;100214.22;255794;1107;115030;-67
2021/09/14 09:01:59;;;;;;;8.48;7.63;;;;;;;19.50;73.51;100222.70;256104;1106;115537;-66
2021/09/14 09:07:03;;;;;;;11.50;7.73;;;;;;;19.94;73.37;100231.80;255670;1107;116169;-67
2021/09/14 09:12:09;;;;;;;7.70;7.10;;;;;;;20.01;72.09;100226.88;254308;1106;117586;-69
2021/09/14 09:17:15;;;;;;;8.65;6.58;;;;;;;19.98;71.79;100230.14;253809;1107;196026;-67
2021/09/14 09:22:18;;;;;;;7.05;6.45;;;;;;;20.06;71.78;100226.83;254610;1106;115855;-66
2021/09/14 09:27:27;;;;;;;6.75;5.98;;;;;;;20.50;71.61;100227.45;254649;1107;115448;-67
2021/09/14 09:32:50;;;;;;;8.30;7.25;;;;;;;20.66;70.70;100230.00;253779;1107;116175;-69
2021/09/14 09:38:03;;;;;;;6.65;5.95;;;;;;;21.37;70.29;100226.37;254842;1107;115356;-68
2021/09/14 09:43:09;;;;;;;9.38;6.00;;;;;;;22.02;69.10;100218.25;254552;1106;115685;-67
2021/09/14 09:48:16;;;;;;;6.75;4.98;;;;;;;21.95;68.16;100212.39;253964;1100;116202;-67
2021/09/14 09:53:19;;;;;;;6.10;5.50;;;;;;;21.51;67.09;100225.31;253911;1107;116046;-67
2021/09/14 09:58:25;;;;;;;8.40;5.85;;;;;;;21.22;67.31;100221.16;253828;1107;115765;-67
2021/09/14 10:03:35;;;;;;;5.28;4.85;;;;;;;20.94;67.44;100217.45;253939;1107;115679;-67
2021/09/14 10:08:39;;;;;;;5.95;4.68;;;;;;;20.67;67.06;100220.78;253924;1107;115670;-67
2021/09/14 10:13:42;;;;;;;5.15;4.63;;;;;;;20.58;67.40;100219.80;253911;1107;116316;-67
2021/09/14 10:18:46;;;;;;;6.63;5.95;;;;;;;20.43;66.80;100221.60;254139;1107;115333;-67
2021/09/14 10:23:55;;;;;;;5.58;4.93;;;;;;;20.49;66.79;100219.62;254797;1107;116320;-67
2021/09/14 10:28:59;;;;;;;7.40;5.55;;;;;;;20.57;66.69;100210.05;254825;1107;115871;-67
2021/09/14 10:34:11;;;;;;;6.07;5.47;;;;;;;20.69;66.36;100218.59;254588;1107;115748;-68
2021/09/14 10:39:23;;;;;;;6.95;4.68;;;;;;;20.75;66.04;100225.56;253745;1100;115752;-69
2021/09/14 10:44:32;;;;;;;6.68;5.63;;;;;;;20.92;65.86;100216.94;253905;1100;115236;-67
2021/09/14 10:49:58;;;;;;;12.60;4.40;;;;;;;21.11;65.73;100215.84;254145;1107;116823;-67
2021/09/14 10:55:07;;;;;;;4.28;3.85;;;;;;;21.22;65.29;100215.73;256140;1107;117694;-68
2021/09/14 11:00:13;;;;;;;4.00;3.25;;;;;;;21.26;64.62;100220.28;256294;1107;115766;-68
2021/09/14 11:05:16;;;;;;;2.80;2.60;;;;;;;21.30;64.51;100217.79;255617;1106;116413;-68
2021/09/14 11:10:20;;;;;;;4.40;3.35;;;;;;;21.25;64.30;100217.86;255596;1100;115829;-68
2021/09/14 11:15:26;;;;;;;4.70;3.25;;;;;;;21.17;64.23;100219.28;254427;1107;116031;-71
2021/09/14 11:20:30;;;;;;;5.45;4.25;;;;;;;21.16;64.38;100213.06;253817;1107;116111;-66
2021/09/14 11:25:33;;;;;;;8.63;4.23;;;;;;;21.17;64.15;100203.02;254808;1107;174034;-67
2021/09/14 11:30:36;;;;;;;4.70;4.03;;;;;;;21.06;63.77;100201.58;253943;1107;115932;-67
2021/09/14 11:35:40;;;;;;;3.75;3.53;;;;;;;20.94;64.18;100199.28;253985;1107;116578;-67
2021/09/14 11:40:52;;;;;;;3.60;3.33;;;;;;;20.83;64.00;100204.02;253784;1107;115533;-67
2021/09/14 11:45:57;;;;;;;4.53;4.13;;;;;;;20.80;64.04;100203.80;253823;1107;115767;-67
2021/09/14 11:51:09;;;;;;;4.58;4.18;;;;;;;20.80;64.24;100203.80;254276;1100;115611;-68
2021/09/14 11:56:14;;;;;;;4.55;4.15;;;;;;;20.88;64.27;100194.22;253948;1107;115912;-70
2021/09/14 12:01:20;;;;;;;5.57;4.80;;;;;;;20.99;64.10;100201.13;254012;1107;116106;-68
2021/09/14 12:06:29;;;;;;;5.15;4.63;;;;;;;21.09;63.99;100195.57;253959;1100;115969;-68
2021/09/14 12:11:35;;;;;;;6.18;4.58;;;;;;;21.26;63.87;100189.65;253837;1106;116087;-67
2021/09/14 12:16:40;;;;;;;5.58;4.85;;;;;;;21.34;62.96;100188.98;254825;1106;115735;-67
2021/09/14 12:21:44;;;;;;;4.08;3.78;;;;;;;21.40;62.97;100185.88;254255;1106;116427;-65
2021/09/14 12:26:50;;;;;;;7.50;4.40;;;;;;;21.43;62.92;100193.42;253549;1107;117868;-66
2021/09/14 12:31:55;;;;;;;4.55;4.15;;;;;;;21.44;62.79;100197.75;256226;1106;116265;-67
2021/09/14 12:36:59;;;;;;;4.05;3.78;;;;;;;21.54;62.55;100195.98;254060;1106;115554;-67
2021/09/14 12:42:05;;;;;;;3.75;3.48;;;;;;;21.55;62.25;100190.27;253733;1107;115389;-68
2021/09/14 12:47:09;;;;;;;4.15;3.70;;;;;;;21.58;62.15;100186.96;255450;1107;115792;-67
2021/09/14 12:52:12;;;;;;;4.68;4.30;;;;;;;21.70;61.86;100172.94;254126;1107;115606;-66
2021/09/14 12:57:16;;;;;;;4.08;3.78;;;;;;;21.75;61.74;100176.34;256007;1107;115093;-67
2021/09/14 13:02:20;;;;;;;4.30;3.90;;;;;;;21.87;61.65;100180.50;256285;1107;115470;-68
2021/09/14 13:07:23;;;;;;;4.83;3.68;;;;;;;22.14;61.19;100169.70;256226;1106;115141;-67
2021/09/14 13:12:31;;;;;;;5.13;4.63;;;;;;;22.20;60.46;100171.23;254618;1107;116256;-67
2021/09/14 13:17:37;;;;;;;4.77;4.27;;;;;;;22.18;60.39;100163.38;253778;1107;114917;-68
2021/09/14 13:22:41;;;;;;;3.93;3.63;;;;;;;22.03;59.96;100163.66;253714;1106;116321;-68
2021/09/14 13:27:45;;;;;;;3.90;3.48;;;;;;;21.79;59.72;100162.99;253973;1100;117301;-68
2021/09/14 13:32:48;;;;;;;3.90;3.60;;;;;;;21.67;59.43;100165.39;253644;1107;116200;-68
2021/09/14 13:37:53;;;;;;;4.58;4.10;;;;;;;21.61;59.68;100156.53;253873;1100;118011;-66
2021/09/14 13:43:00;;;;;;;3.97;3.60;;;;;;;21.97;60.41;100153.19;254186;1106;116067;-66
2021/09/14 13:48:05;;;;;;;9.73;3.80;;;;;;;22.35;60.51;100149.19;254074;1107;116095;-66
2021/09/14 13:53:08;;;;;;;5.43;4.35;;;;;;;22.30;59.64;100148.50;253906;1107;118038;-68
2021/09/14 13:58:11;;;;;;;3.58;3.38;;;;;;;22.22;59.26;100151.92;253979;1107;116439;-67
2021/09/14 14:03:16;;;;;;;5.05;4.55;;;;;;;22.24;58.63;100160.57;253911;1107;115862;-66
2021/09/14 14:08:18;;;;;;;4.38;3.95;;;;;;;21.97;58.95;100150.47;254376;1107;116309;-65
2021/09/14 14:13:21;;;;;;;3.90;3.60;;;;;;;21.72;59.33;100149.80;254282;1106;215412;-66
2021/09/14 14:18:30;;;;;;;3.60;2.93;;;;;;;21.47;59.38;100140.20;254456;1107;115775;-66
2021/09/14 14:23:34;;;;;;;4.18;3.20;;;;;;;21.25;60.19;100150.88;253796;1107;116280;-66
2021/09/14 14:28:37;;;;;;;4.85;3.75;;;;;;;21.10;60.26;100146.45;253750;1107;115744;-66
2021/09/14 14:33:41;;;;;;;5.60;3.68;;;;;;;21.00;60.81;100138.50;253670;1107;116049;-66
2021/09/14 14:38:47;;;;;;;3.78;3.18;;;;;;;20.93;60.83;100143.47;253705;1106;117292;-65
2021/09/14 14:43:51;;;;;;;4.93;3.48;;;;;;;20.94;61.32;100142.38;254099;1106;115497;-66
2021/09/14 14:48:53;;;;;;;9.58;7.28;;;;;;;20.97;60.75;100136.38;253855;1107;116892;-66
2021/09/14 14:53:56;;;;;;;4.55;4.18;;;;;;;20.90;60.86;100135.92;254102;1100;117131;-66
2021/09/14 14:59:01;;;;;;;6.08;4.43;;;;;;;20.79;60.91;100131.77;254695;1107;115745;-67
2021/09/14 15:04:04;;;;;;;5.28;4.78;;;;;;;20.72;61.37;100131.32;253655;1107;118336;-66
2021/09/14 15:09:06;;;;;;;6.58;5.68;;;;;;;20.65;60.82;100133.58;256099;1107;116581;-67
2021/09/14 15:14:09;;;;;;;7.70;6.05;;;;;;;20.54;60.85;100132.89;256147;1106;116125;-66
2021/09/14 15:19:12;;;;;;;4.37;3.30;;;;;;;20.45;60.84;100127.34;254226;1107;116746;-68
2021/09/14 15:24:15;;;;;;;4.40;4.00;;;;;;;20.36;61.24;100139.06;255319;1107;116999;-65
2021/09/14 15:29:20;;;;;;;6.70;5.50;;;;;;;20.28;60.95;100128.87;253615;1107;115906;-66
2021/09/14 15:34:24;;;;;;;7.55;4.95;;;;;;;20.24;61.20;100131.34;253753;1107;115778;-66
2021/09/14 15:39:27;;;;;;;5.23;4.57;;;;;;;20.18;61.69;100122.47;253806;1107;115613;-66
2021/09/14 15:44:30;;;;;;;7.43;4.63;;;;;;;20.06;61.99;100130.20;253499;1106;115931;-67
2021/09/14 15:49:33;;;;;;;5.60;5.10;;;;;;;19.95;62.19;100127.89;253686;1107;116407;-65
2021/09/14 15:54:36;;;;;;;7.68;6.10;;;;;;;19.88;62.63;100136.34;253815;1101;116939;-66
2021/09/14 15:59:39;;;;;;;9.35;6.65;;;;;;;19.73;62.95;100133.80;254233;1107;116285;-67
2021/09/14 16:04:43;;;;;;;8.70;6.83;;;;;;;19.56;63.44;100126.13;254006;1107;117330;-64
2021/09/14 16:09:46;;;;;;;6.78;6.10;;;;;;;19.44;63.46;100120.25;254879;1106;115830;-65
2021/09/14 16:14:48;;;;;;;5.70;5.18;;;;;;;19.31;64.27;100121.70;254204;1106;115380;-65
2021/09/14 16:19:52;;;;;;;6.35;5.50;;;;;;;19.17;64.26;100121.55;254351;1100;115679;-65
2021/09/14 16:24:55;;;;;;;8.45;5.75;;;;;;;19.01;64.47;100124.63;253587;1107;115846;-66
2021/09/14 16:29:59;;;;;;;5.93;5.00;;;;;;;18.82;64.67;100129.89;253697;1107;115251;-67
2021/09/14 16:35:03;;;;;;;5.40;4.97;;;;;;;18.63;64.88;100129.74;253637;1107;115301;-65
2021/09/14 16:40:12;;;;;;;5.60;5.20;;;;;;;18.42;65.40;100122.77;253556;1107;116095;-66
2021/09/14 16:45:15;;;;;;;6.70;4.87;;;;;;;18.20;65.33;100133.94;254606;1107;115410;-66
2021/09/14 16:50:19;;;;;;;5.55;5.20;;;;;;;18.00;66.19;100128.61;253651;1107;115320;-66
2021/09/14 16:55:22;;;;;;;8.10;5.00;;;;;;;17.79;65.97;100125.13;253615;1107;116274;-65
2021/09/14 17:00:28;;;;;;;5.83;5.25;;;;;;;17.60;66.45;100135.66;256365;1106;115450;-66
2021/09/14 17:05:31;;;;;;;7.58;5.15;;;;;;;17.44;66.67;100126.75;256209;1107;115641;-67
2021/09/14 17:10:34;;;;;;;4.78;4.30;;;;;;;17.31;66.90;100145.36;255444;1106;115610;-66
2021/09/14 17:15:41;;;;;;;6.28;5.68;;;;;;;17.11;67.11;100144.28;254913;1107;118036;-66
2021/09/14 17:20:45;;;;;;;7.17;5.10;;;;;;;16.94;67.44;100141.02;253970;1106;116082;-66
2021/09/14 17:25:47;;;;;;;5.85;5.23;;;;;;;16.75;67.47;100154.17;253714;1107;114921;-65
2021/09/14 17:30:53;;;;;;;5.85;5.35;;;;;;;16.49;67.85;100144.37;253681;1107;117285;-65
2021/09/14 17:36:12;;;;;;;7.58;5.18;;;;;;;16.29;68.78;100149.64;254394;1107;114932;-65
2021/09/14 17:41:16;;;;;;;9.30;5.45;;;;;;;16.20;68.46;100162.00;253796;1100;115671;-65
2021/09/14 17:46:31;;;;;;;15.23;5.33;;;;;;;16.06;68.45;100162.45;254375;1100;116903;-65
2021/09/14 17:51:40;;;;;;;10.73;5.65;;;;;;;15.93;68.65;100159.39;253551;1107;115811;-66
2021/09/14 17:56:44;;;;;;;21.30;6.15;;;;;;;15.78;68.63;100162.80;253466;1107;115800;-65
2021/09/14 18:01:49;;;;;;;10.00;5.30;;;;;;;15.59;68.88;100167.79;253454;1107;116596;-65
2021/09/14 18:06:58;;;;;;;12.08;5.15;;;;;;;15.35;69.07;100161.89;253958;1107;116440;-64
2021/09/14 18:12:02;;;;;;;14.13;7.95;;;;;;;15.26;69.12;100168.01;254676;1107;116976;-64
2021/09/14 18:17:06;;;;;;;11.63;6.45;;;;;;;15.11;69.55;100161.41;253773;1107;115973;-65
2021/09/14 18:22:10;;;;;;;12.23;6.60;;;;;;;14.93;69.53;100156.41;253832;1107;115945;-67
2021/09/14 18:27:15;;;;;;;12.28;7.28;;;;;;;14.79;69.66;100157.86;254683;1100;117714;-67
2021/09/14 18:32:19;;;;;;;10.95;6.60;;;;;;;14.72;70.31;100152.69;253801;1106;115689;-64
2021/09/14 18:37:23;;;;;;;10.48;6.38;;;;;;;14.56;70.18;100147.41;253727;1107;116048;-65
2021/09/14 18:42:27;;;;;;;9.13;7.03;;;;;;;14.40;70.12;100157.91;253557;1107;119319;-66
2021/09/14 18:47:31;;;;;;;10.98;6.43;;;;;;;14.34;70.50;100161.61;253905;1106;117880;-65
2021/09/14 18:52:35;;;;;;;15.23;7.93;;;;;;;14.27;70.76;100160.16;255269;1107;115516;-65
2021/09/14 18:57:39;;;;;;;10.18;6.20;;;;;;;14.18;70.81;100153.60;256330;1107;116821;-66
2021/09/14 19:02:42;;;;;;;12.80;6.03;;;;;;;14.06;70.83;100154.51;256160;1107;116926;-65
2021/09/14 19:07:45;;;;;;;14.97;7.40;;;;;;;13.97;70.84;100160.56;256115;1107;115755;-66
2021/09/14 19:12:48;;;;;;;8.05;7.00;;;;;;;13.91;71.28;100164.22;254135;1107;115940;-67
2021/09/14 19:17:53;;;;;;;9.68;6.15;;;;;;;13.79;70.76;100164.30;256251;1107;116109;-65
2021/09/14 19:22:56;;;;;;;10.85;6.63;;;;;;;13.72;71.55;100164.50;255147;1107;115987;-66
2021/09/14 19:28:00;;;;;;;7.00;6.07;;;;;;;13.65;71.26;100157.67;253578;1107;116667;-64
2021/09/14 19:33:03;;;;;;;14.13;7.87;;;;;;;13.50;71.65;100160.91;253661;1106;117106;-65
2021/09/14 19:38:08;;;;;;;19.98;8.53;;;;;;;13.33;71.51;100166.27;253787;1107;116203;-66
2021/09/14 19:43:17;;;;;;;10.65;8.00;;;;;;;13.29;72.26;100169.67;253617;1107;115991;-64
2021/09/14 19:48:20;;;;;;;18.60;9.15;;;;;;;13.18;71.95;100179.38;253769;1100;115415;-65
2021/09/14 19:53:23;;;;;;;15.83;9.47;;;;;;;13.08;71.96;100180.00;253888;1107;118243;-64
2021/09/14 19:58:26;;;;;;;11.63;8.35;;;;;;;13.04;72.77;100178.84;254586;1100;117914;-65
2021/09/14 20:03:29;;;;;;;11.53;7.90;;;;;;;13.04;72.53;100165.47;253577;1107;115855;-66
2021/09/14 20:08:32;;;;;;;11.47;7.40;;;;;;;12.95;72.28;100168.76;253772;1107;116235;-65
2021/09/14 20:13:36;;;;;;;10.35;7.10;;;;;;;12.84;72.45;100161.61;253674;1106;117094;-66
2021/09/14 20:18:40;;;;;;;14.68;8.00;;;;;;;12.76;72.73;100171.64;254904;1106;115653;-64
2021/09/14 20:23:43;;;;;;;18.15;9.68;;;;;;;12.68;72.76;100163.17;254086;1106;116709;-66
2021/09/14 20:28:49;;;;;;;13.50;8.77;;;;;;;12.60;73.09;100169.70;253830;1100;116415;-65
2021/09/14 20:33:52;;;;;;;10.30;8.30;;;;;;;12.57;72.94;100166.68;255088;1100;117872;-68
2021/09/14 20:38:57;;;;;;;15.53;10.23;;;;;;;12.51;73.31;100163.12;254603;1107;115473;-63
2021/09/14 20:44:01;;;;;;;12.53;9.75;;;;;;;12.42;72.89;100161.86;255071;1107;115742;-63
2021/09/14 20:49:04;;;;;;;16.47;11.37;;;;;;;12.33;73.51;100168.61;254126;1106;116498;-65
2021/09/14 20:54:08;;;;;;;12.30;8.20;;;;;;;12.22;73.46;100159.58;256245;1107;116704;-66
2021/09/14 20:59:13;;;;;;;10.95;9.03;;;;;;;12.26;73.58;100158.03;256209;1107;116805;-65
2021/09/14 21:04:16;;;;;;;16.40;10.58;;;;;;;12.29;73.96;100156.75;256240;1106;115824;-66
2021/09/14 21:09:19;;;;;;;9.58;8.65;;;;;;;12.31;73.75;100158.14;256207;1107;116518;-65
2021/09/14 21:14:23;;;;;;;17.73;9.70;;;;;;;12.23;73.36;100168.41;255312;1107;115224;-64
2021/09/14 21:19:26;;;;;;;14.07;10.03;;;;;;;12.10;73.38;100161.44;254732;1107;115320;-65
2021/09/14 21:24:29;;;;;;;12.38;9.55;;;;;;;11.98;73.48;100164.11;254754;1107;116530;-65
2021/09/14 21:29:33;;;;;;;10.30;8.65;;;;;;;11.86;73.51;100157.16;253789;1100;116580;-64
2021/09/14 21:34:37;;;;;;;14.55;10.20;;;;;;;11.76;73.85;100158.55;254678;1098;115940;-64
2021/09/14 21:39:40;;;;;;;15.50;10.08;;;;;;;11.70;74.07;100159.44;254459;1107;115696;-64
2021/09/14 21:44:43;;;;;;;11.60;9.20;;;;;;;11.68;74.34;100168.72;254145;1107;117096;-64
2021/09/14 21:49:46;;;;;;;13.45;10.43;;;;;;;11.55;74.25;100159.09;254971;1107;117207;-64
2021/09/14 21:54:49;;;;;;;15.53;9.90;;;;;;;11.47;74.77;100162.09;253945;1107;116024;-65
2021/09/14 21:59:52;;;;;;;14.85;9.00;;;;;;;11.37;74.60;100167.17;254115;1100;115793;-62
2021/09/14 22:04:55;;;;;;;11.65;8.90;;;;;;;11.33;74.79;100161.48;253924;1107;115733;-63
2021/09/14 22:10:00;;;;;;;14.48;9.13;;;;;;;11.29;74.71;100159.52;254240;1107;115811;-62
2021/09/14 22:15:06;;;;;;;12.18;9.48;;;;;;;11.27;75.20;100158.94;254356;1107;115966;-66
2021/09/14 22:20:10;;;;;;;14.13;10.73;;;;;;;11.20;75.44;100147.54;253934;1107;115468;-65
2021/09/14 22:25:13;;;;;;;19.00;10.35;;;;;;;11.08;74.92;100150.17;253820;1107;118960;-65
2021/09/14 22:30:19;;;;;;;14.90;10.10;;;;;;;11.02;75.13;100161.74;253943;1107;116372;-65
2021/09/14 22:35:23;;;;;;;13.47;10.37;;;;;;;11.00;75.46;100153.18;254423;1107;115419;-66
2021/09/14 22:40:27;;;;;;;13.48;11.70;;;;;;;10.96;75.15;100155.48;254765;1107;115960;-65
2021/09/14 22:45:31;;;;;;;12.13;10.53;;;;;;;10.87;75.26;100154.16;254983;1107;116980;-65
2021/09/14 22:50:34;;;;;;;11.28;10.18;;;;;;;10.78;75.28;100152.84;254898;1106;115883;-69
2021/09/14 22:55:38;;;;;;;19.80;12.77;;;;;;;10.73;75.53;100155.37;254414;1107;115269;-65
2021/09/14 23:00:41;;;;;;;14.48;12.10;;;;;;;10.68;75.31;100142.73;256380;1107;115947;-64
2021/09/14 23:05:44;;;;;;;14.43;11.83;;;;;;;10.69;76.16;100143.55;255190;1107;118880;-65
2021/09/14 23:10:47;;;;;;;16.95;12.95;;;;;;;10.78;75.96;100139.52;255179;1106;115961;-66
2021/09/14 23:15:51;;;;;;;18.35;12.65;;;;;;;10.77;75.99;100141.37;255803;1106;117538;-65
2021/09/14 23:20:54;;;;;;;12.60;10.38;;;;;;;10.68;75.72;100134.74;253737;1107;116151;-65
2021/09/14 23:25:58;;;;;;;12.35;10.73;;;;;;;10.57;76.10;100134.67;255035;1107;116308;-65
2021/09/14 23:31:02;;;;;;;18.40;12.45;;;;;;;10.51;75.91;100130.23;255590;1107;116234;-65
2021/09/14 23:36:05;;;;;;;17.17;14.00;;;;;;;10.55;76.41;100126.09;254298;1103;116538;-65
2021/09/14 23:41:08;;;;;;;15.33;12.55;;;;;;;10.52;76.04;100123.87;254475;1106;119546;-65
2021/09/14 23:46:12;;;;;;;20.45;13.98;;;;;;;10.45;76.17;100122.09;253836;1107;116743;-64
2021/09/14 23:51:16;;;;;;;19.08;14.20;;;;;;;10.36;76.18;100126.13;254058;1106;116847;-66